createdAt,value
2018-10-01T00:02:04.904Z,8.49
2018-10-01T00:04:35.797Z,8.50
2018-10-01T00:07:06.183Z,8.46
2018-10-01T00:09:34.626Z,8.68
2018-10-01T00:12:03.968Z,8.74
2018-10-01T00:14:32.768Z,8.58
2018-10-01T00:17:02.287Z,8.29
2018-10-01T00:19:37.381Z,8.30
2018-10-01T00:22:11.856Z,8.21
2018-10-01T00:24:41.906Z,8.12
2018-10-01T00:27:11.525Z,8.10
2018-10-01T00:29:40.799Z,8.12
2018-10-01T00:32:14.297Z,7.98
2018-10-01T00:34:43.318Z,7.97
2018-10-01T00:37:12.132Z,7.97
2018-10-01T00:39:42.661Z,7.72
2018-10-01T00:42:14.047Z,7.54
2018-10-01T00:44:45.229Z,7.57
2018-10-01T00:47:15.562Z,7.65
2018-10-01T00:49:46.832Z,7.54
2018-10-01T00:52:18.845Z,7.50
2018-10-01T00:54:49.672Z,7.29
2018-10-01T00:57:20.149Z,7.37
2018-10-01T00:59:50.519Z,7.35
2018-10-01T01:02:23.847Z,7.27
2018-10-01T01:04:54.965Z,7.29
2018-10-01T01:07:25.949Z,7.06
2018-10-01T01:09:57.179Z,7.13
2018-10-01T01:12:27.871Z,7.00
2018-10-01T01:14:57.368Z,7.06
2018-10-01T01:17:26.928Z,6.97
2018-10-01T01:19:57.003Z,6.90
2018-10-01T01:22:26.324Z,6.92
2018-10-01T01:24:55.170Z,7.09
2018-10-01T01:27:24.078Z,7.09
2018-10-01T01:29:53.801Z,7.11
2018-10-01T01:32:22.518Z,7.28
2018-10-01T01:34:52.354Z,7.41
2018-10-01T01:37:20.872Z,7.48
2018-10-01T01:39:49.309Z,7.64
2018-10-01T01:42:18.584Z,7.55
2018-10-01T01:44:48.574Z,7.68
2018-10-01T01:47:21.346Z,7.90
2018-10-01T01:49:51.209Z,7.84
2018-10-01T01:52:23.461Z,8.06
2018-10-01T01:54:54.326Z,8.09
2018-10-01T01:57:26.037Z,8.00
2018-10-01T01:59:57.937Z,7.99
2018-10-01T02:02:31.348Z,7.68
2018-10-01T02:05:02.685Z,7.55
2018-10-01T02:07:35.160Z,7.41
2018-10-01T02:10:06.918Z,7.09
2018-10-01T02:12:37.654Z,6.99
2018-10-01T02:15:11.017Z,7.18
2018-10-01T02:17:41.319Z,7.26
2018-10-01T02:20:12.502Z,7.36
2018-10-01T02:22:42.791Z,7.23
2018-10-01T02:25:12.152Z,7.43
2018-10-01T02:27:41.833Z,7.63
2018-10-01T02:30:10.776Z,7.75
2018-10-01T02:32:40.196Z,7.60
2018-10-01T02:35:09.682Z,7.57
2018-10-01T02:37:38.291Z,7.72
2018-10-01T02:40:07.262Z,7.57
2018-10-01T02:42:39.590Z,7.56
2018-10-01T02:45:08.442Z,7.40
2018-10-01T02:47:37.143Z,7.46
2018-10-01T02:50:06.524Z,7.40
2018-10-01T02:52:40.425Z,7.49
2018-10-01T02:55:11.319Z,7.52
2018-10-01T02:57:41.659Z,7.49
2018-10-01T03:00:14.210Z,7.50
2018-10-01T03:02:45.556Z,7.36
2018-10-01T03:05:16.350Z,7.17
2018-10-01T03:07:47.297Z,7.17
2018-10-01T03:10:18.022Z,7.19
2018-10-01T03:12:48.171Z,7.21
2018-10-01T03:15:20.337Z,7.35
2018-10-01T03:17:50.588Z,7.42
2018-10-01T03:20:21.688Z,7.53
2018-10-01T03:22:52.060Z,7.45
2018-10-01T03:25:22.147Z,7.34
2018-10-01T03:27:52.470Z,7.34
2018-10-01T03:30:24.235Z,7.28
2018-10-01T03:32:53.205Z,7.24
2018-10-01T03:35:22.644Z,7.22
2018-10-01T03:37:53.080Z,7.16
2018-10-01T03:40:21.554Z,7.25
2018-10-01T03:42:50.813Z,7.33
2018-10-01T03:45:21.009Z,7.33
2018-10-01T03:47:50.111Z,7.39
2018-10-01T03:50:20.022Z,7.53
2018-10-01T03:52:49.066Z,7.39
2018-10-01T03:55:18.421Z,7.32
2018-10-01T03:57:48.004Z,7.23
2018-10-01T04:00:17.839Z,7.23
2018-10-01T04:02:49.032Z,7.11
2018-10-01T04:05:19.271Z,7.07
2018-10-01T04:07:49.853Z,7.10
2018-10-01T04:10:21.710Z,7.06
2018-10-01T04:12:52.254Z,7.12
2018-10-01T04:15:22.699Z,7.23
2018-10-01T04:17:54.380Z,7.40
2018-10-01T04:20:24.958Z,7.53
2018-10-01T04:22:56.139Z,7.54
2018-10-01T04:25:26.520Z,7.58
2018-10-01T04:27:57.947Z,7.55
2018-10-01T04:30:28.556Z,7.52
2018-10-01T04:32:59.592Z,7.59
2018-10-01T04:35:31.727Z,7.54
2018-10-01T04:38:03.717Z,7.54
2018-10-01T04:40:32.527Z,7.45
2018-10-01T04:43:01.893Z,7.38
2018-10-01T04:45:31.701Z,7.26
2018-10-01T04:48:02.021Z,7.37
2018-10-01T04:50:31.209Z,7.37
2018-10-01T04:53:01.627Z,7.25
2018-10-01T04:55:30.693Z,7.23
2018-10-01T04:58:00.523Z,7.36
2018-10-01T05:00:30.043Z,7.44
2018-10-01T05:02:59.580Z,7.39
2018-10-01T05:05:29.239Z,7.53
2018-10-01T05:07:58.946Z,7.63
2018-10-01T05:10:30.576Z,7.71
2018-10-01T05:13:00.811Z,7.77
2018-10-01T05:15:30.711Z,7.73
2018-10-01T05:18:01.516Z,7.78
2018-10-01T05:20:33.001Z,7.80
2018-10-01T05:23:04.524Z,7.75
2018-10-01T05:25:37.171Z,7.84
2018-10-01T05:28:07.501Z,8.00
2018-10-01T05:30:38.904Z,7.87
2018-10-01T05:33:10.313Z,7.75
2018-10-01T05:35:41.305Z,7.67
2018-10-01T05:38:11.792Z,7.77
2018-10-01T05:40:43.964Z,7.68
2018-10-01T05:43:15.327Z,7.70
2018-10-01T05:45:45.215Z,7.74
2018-10-01T05:48:14.521Z,7.70
2018-10-01T05:50:44.283Z,7.74
2018-10-01T05:53:14.296Z,7.81
2018-10-01T05:55:43.013Z,7.80
2018-10-01T05:58:12.355Z,7.77
2018-10-01T06:00:41.545Z,7.91
2018-10-01T06:03:11.785Z,7.87
2018-10-01T06:05:41.459Z,7.88
2018-10-01T06:08:10.353Z,7.81
2018-10-01T06:10:39.393Z,7.93
2018-10-01T06:13:08.468Z,8.07
2018-10-01T06:15:37.522Z,8.13
2018-10-01T06:18:06.317Z,8.16
2018-10-01T06:20:36.186Z,8.22
2018-10-01T06:23:07.115Z,8.31
2018-10-01T06:25:37.474Z,8.34
2018-10-01T06:28:07.948Z,8.34
2018-10-01T06:30:38.480Z,8.40
2018-10-01T06:33:10.035Z,8.38
2018-10-01T06:35:41.498Z,8.41
2018-10-01T06:38:12.223Z,8.49
2018-10-01T06:40:43.190Z,8.55
2018-10-01T06:43:15.053Z,8.64
2018-10-01T06:45:45.709Z,8.62
2018-10-01T06:48:16.948Z,8.73
2018-10-01T06:50:48.942Z,8.81
2018-10-01T06:53:21.766Z,8.86
2018-10-01T06:55:53.046Z,8.94
2018-10-01T06:58:23.639Z,9.10
2018-10-01T07:00:53.777Z,9.20
2018-10-01T07:03:23.739Z,9.35
2018-10-01T07:05:54.214Z,9.48
2018-10-01T07:08:24.362Z,9.52
2018-10-01T07:10:53.080Z,9.63
2018-10-01T07:13:22.235Z,9.66
2018-10-01T07:15:50.701Z,9.74
2018-10-01T07:18:20.637Z,9.81
2018-10-01T07:20:50.437Z,9.87
2018-10-01T07:23:19.459Z,9.90
2018-10-01T07:25:50.128Z,9.87
2018-10-01T07:28:19.760Z,9.92
2018-10-01T07:30:48.826Z,9.92
2018-10-01T07:33:17.879Z,9.97
2018-10-01T07:35:46.802Z,9.93
2018-10-01T07:38:15.682Z,9.90
2018-10-01T07:40:44.807Z,9.76
2018-10-01T07:43:16.743Z,9.75
2018-10-01T07:45:46.947Z,9.78
2018-10-01T07:48:17.683Z,9.83
2018-10-01T07:50:48.766Z,9.70
2018-10-01T07:53:21.165Z,9.77
2018-10-01T07:55:52.637Z,9.78
2018-10-01T07:58:23.219Z,9.89
2018-10-01T08:00:55.336Z,9.90
2018-10-01T08:03:26.730Z,9.92
2018-10-01T08:05:56.982Z,9.95
2018-10-01T08:08:27.787Z,10.10
2018-10-01T08:10:58.508Z,10.14
2018-10-01T08:13:29.073Z,10.21
2018-10-01T08:15:59.744Z,10.24
2018-10-01T08:18:30.169Z,10.37
2018-10-01T08:21:00.858Z,10.46
2018-10-01T08:23:31.517Z,10.66
2018-10-01T08:26:04.105Z,10.71
2018-10-01T08:28:34.300Z,10.96
2018-10-01T08:31:04.665Z,11.02
2018-10-01T08:33:35.304Z,11.18
2018-10-01T08:36:07.747Z,11.54
2018-10-01T08:38:37.570Z,11.87
2018-10-01T08:41:08.000Z,11.98
2018-10-01T08:43:37.965Z,12.05
2018-10-01T08:46:08.233Z,11.89
2018-10-01T08:48:41.589Z,11.96
2018-10-01T08:51:16.072Z,11.98
2018-10-01T08:54:25.041Z,12.00
2018-10-01T08:56:55.173Z,12.02
2018-10-01T08:59:24.498Z,11.84
2018-10-01T09:01:53.189Z,11.91
2018-10-01T09:04:21.874Z,11.90
2018-10-01T09:06:50.374Z,11.85
2018-10-01T09:09:18.841Z,11.82
2018-10-01T09:11:48.178Z,12.09
2018-10-01T09:14:18.399Z,12.47
2018-10-01T09:16:47.448Z,12.96
2018-10-01T09:19:16.242Z,13.04
2018-10-01T09:21:45.801Z,13.13
2018-10-01T09:24:15.127Z,13.21
2018-10-01T09:26:45.098Z,12.96
2018-10-01T09:29:14.060Z,12.74
2018-10-01T09:31:43.277Z,12.96
2018-10-01T09:34:13.037Z,12.69
2018-10-01T09:36:42.970Z,12.61
2018-10-01T09:39:13.356Z,12.50
2018-10-01T09:41:43.675Z,12.64
2018-10-01T09:44:13.448Z,12.58
2018-10-01T09:46:43.418Z,12.61
2018-10-01T09:49:12.526Z,12.72
2018-10-01T09:51:41.691Z,12.54
2018-10-01T09:54:10.822Z,12.74
2018-10-01T09:56:39.696Z,12.94
2018-10-01T09:59:08.598Z,13.43
2018-10-01T10:01:39.524Z,13.68
2018-10-01T10:04:08.746Z,13.96
2018-10-01T10:06:37.390Z,14.11
2018-10-01T10:09:09.862Z,14.04
2018-10-01T10:11:39.632Z,13.84
2018-10-01T10:14:08.283Z,13.89
2018-10-01T10:16:39.157Z,13.82
2018-10-01T10:19:08.968Z,13.68
2018-10-01T10:21:38.743Z,13.63
2018-10-01T10:24:07.788Z,13.30
2018-10-01T10:26:39.214Z,13.26
2018-10-01T10:29:08.158Z,13.08
2018-10-01T10:31:39.382Z,13.11
2018-10-01T10:34:08.370Z,13.43
2018-10-01T10:36:38.316Z,14.02
2018-10-01T10:39:11.112Z,14.45
2018-10-01T10:41:40.295Z,14.74
2018-10-01T10:44:09.519Z,14.59
2018-10-01T10:46:40.424Z,15.15
2018-10-01T10:49:09.697Z,14.63
2018-10-01T10:51:39.800Z,14.23
2018-10-01T10:54:08.707Z,14.09
2018-10-01T10:56:38.323Z,14.03
2018-10-01T10:59:07.857Z,14.50
2018-10-01T11:01:37.806Z,14.98
2018-10-01T11:04:07.037Z,15.39
2018-10-01T11:06:35.962Z,15.31
2018-10-01T11:09:06.987Z,14.98
2018-10-01T11:11:36.497Z,15.13
2018-10-01T11:14:05.574Z,14.92
2018-10-01T11:16:37.062Z,15.42
2018-10-01T11:19:07.677Z,16.05
2018-10-01T11:21:37.244Z,16.35
2018-10-01T11:24:07.147Z,16.66
2018-10-01T11:26:36.053Z,16.55
2018-10-01T11:29:06.702Z,16.42
2018-10-01T11:31:35.522Z,16.51
2018-10-01T11:34:04.800Z,15.95
2018-10-01T11:36:34.524Z,15.29
2018-10-01T11:39:04.777Z,15.14
2018-10-01T11:41:35.024Z,15.42
2018-10-01T11:44:03.759Z,15.56
2018-10-01T11:46:34.376Z,15.30
2018-10-01T11:49:03.682Z,15.10
2018-10-01T11:51:34.041Z,14.74
2018-10-01T11:54:04.817Z,14.66
2018-10-01T11:56:34.696Z,14.72
2018-10-01T11:59:03.642Z,14.42
2018-10-01T12:01:32.468Z,14.44
2018-10-01T12:04:01.419Z,14.65
2018-10-01T12:06:30.298Z,15.04
2018-10-01T12:09:00.681Z,14.78
2018-10-01T12:11:29.149Z,14.63
2018-10-01T12:13:58.340Z,14.83
2018-10-01T12:16:27.189Z,15.51
2018-10-01T12:18:56.048Z,15.97
2018-10-01T12:21:25.515Z,16.54
2018-10-01T12:23:56.511Z,16.64
2018-10-01T12:26:26.060Z,16.52
2018-10-01T12:28:55.457Z,15.92
2018-10-01T12:31:24.787Z,15.73
2018-10-01T12:33:53.637Z,15.59
2018-10-01T12:36:23.755Z,15.58
2018-10-01T12:38:54.084Z,15.50
2018-10-01T12:41:23.198Z,15.32
2018-10-01T12:43:52.164Z,15.76
2018-10-01T12:46:23.380Z,16.12
2018-10-01T12:48:52.068Z,16.20
2018-10-01T12:51:23.984Z,16.21
2018-10-01T12:53:53.386Z,16.50
2018-10-01T12:56:22.176Z,16.43
2018-10-01T12:58:51.524Z,16.69
2018-10-01T13:01:22.320Z,16.39
2018-10-01T13:03:52.544Z,16.16
2018-10-01T13:06:22.158Z,15.50
2018-10-01T13:08:52.090Z,15.24
2018-10-01T13:11:21.590Z,14.45
2018-10-01T13:13:51.161Z,13.32
2018-10-01T13:16:22.567Z,13.86
2018-10-01T13:18:54.223Z,14.20
2018-10-01T13:21:23.619Z,14.62
2018-10-01T13:23:53.731Z,15.01
2018-10-01T13:26:24.264Z,15.67
2018-10-01T13:28:53.235Z,16.15
2018-10-01T13:31:22.283Z,16.31
2018-10-01T13:33:51.477Z,16.53
2018-10-01T13:36:22.006Z,16.62
2018-10-01T13:38:50.433Z,16.86
2018-10-01T13:41:18.890Z,16.85
2018-10-01T13:43:48.134Z,16.90
2018-10-01T13:46:17.366Z,16.32
2018-10-01T13:48:46.523Z,15.89
2018-10-01T13:51:16.369Z,15.41
2018-10-01T13:53:45.839Z,15.04
2018-10-01T13:56:15.792Z,14.97
2018-10-01T13:58:45.845Z,15.59
2018-10-01T14:01:15.107Z,15.87
2018-10-01T14:03:45.146Z,16.08
2018-10-01T14:06:14.292Z,16.26
2018-10-01T14:08:43.585Z,16.05
2018-10-01T14:11:13.235Z,15.26
2018-10-01T14:13:43.499Z,15.26
2018-10-01T14:16:13.820Z,15.30
2018-10-01T14:18:42.773Z,15.04
2018-10-01T14:21:12.072Z,14.49
2018-10-01T14:23:41.487Z,14.14
2018-10-01T14:26:11.799Z,13.43
2018-10-01T14:28:40.937Z,12.69
2018-10-01T14:31:09.941Z,12.14
2018-10-01T14:33:38.720Z,11.70
2018-10-01T14:36:08.000Z,11.44
2018-10-01T14:38:37.139Z,11.27
2018-10-01T14:41:06.763Z,11.22
2018-10-01T14:43:36.756Z,11.11
2018-10-01T14:46:06.025Z,10.94
2018-10-01T14:48:35.485Z,10.88
2018-10-01T14:51:05.257Z,10.94
2018-10-01T14:53:34.259Z,10.92
2018-10-01T14:56:03.824Z,11.03
2018-10-01T14:58:34.080Z,11.01
2018-10-01T15:01:04.007Z,11.10
2018-10-01T15:03:33.912Z,11.18
2018-10-01T15:06:02.936Z,11.15
2018-10-01T15:08:32.125Z,11.14
2018-10-01T15:11:02.480Z,11.11
2018-10-01T15:13:30.916Z,11.17
2018-10-01T15:16:01.165Z,11.40
2018-10-01T15:18:30.741Z,11.35
2018-10-01T15:20:59.916Z,11.51
2018-10-01T15:23:28.385Z,11.61
2018-10-01T15:25:58.022Z,11.54
2018-10-01T15:28:27.905Z,11.73
2018-10-01T15:30:57.899Z,11.78
2018-10-01T15:33:26.976Z,12.94
2018-10-01T15:35:55.865Z,13.88
2018-10-01T15:38:27.024Z,14.34
2018-10-01T15:40:57.085Z,14.48
2018-10-01T15:43:26.256Z,13.95
2018-10-01T15:45:56.324Z,13.22
2018-10-01T15:48:27.294Z,12.61
2018-10-01T15:50:57.007Z,12.42
2018-10-01T15:53:25.675Z,12.06
2018-10-01T15:55:54.794Z,11.70
2018-10-01T15:58:24.616Z,11.62
2018-10-01T16:00:54.308Z,11.43
2018-10-01T16:03:23.863Z,11.30
2018-10-01T16:05:52.964Z,11.24
2018-10-01T16:08:22.573Z,11.22
2018-10-01T16:10:51.841Z,11.17
2018-10-01T16:13:21.841Z,11.16
2018-10-01T16:15:50.671Z,11.16
2018-10-01T16:18:19.802Z,11.19
2018-10-01T16:20:48.972Z,11.17
2018-10-01T16:23:19.085Z,11.21
2018-10-01T16:25:47.872Z,11.28
2018-10-01T16:28:17.502Z,11.53
2018-10-01T16:30:48.678Z,12.06
2018-10-01T16:33:21.383Z,11.76
2018-10-01T16:35:50.169Z,10.98
2018-10-01T16:38:19.488Z,10.85
2018-10-01T16:40:48.880Z,10.47
2018-10-01T16:43:19.104Z,10.28
2018-10-01T16:45:48.846Z,10.35
2018-10-01T16:48:17.820Z,10.31
2018-10-01T16:50:48.173Z,10.15
2018-10-01T16:53:17.697Z,10.11
2018-10-01T16:55:48.399Z,10.21
2018-10-01T16:58:17.848Z,10.06
2018-10-01T17:00:47.409Z,10.14
2018-10-01T17:03:17.173Z,10.08
2018-10-01T17:05:47.250Z,10.03
2018-10-01T17:08:19.728Z,9.97
2018-10-01T17:10:48.469Z,9.86
2018-10-01T17:13:17.824Z,9.83
2018-10-01T17:15:46.740Z,9.91
2018-10-01T17:18:16.876Z,9.80
2018-10-01T17:20:51.705Z,9.68
2018-10-01T17:23:22.019Z,9.60
2018-10-01T17:25:53.069Z,9.54
2018-10-01T17:28:22.599Z,9.53
2018-10-01T17:30:52.770Z,9.45
2018-10-01T17:33:22.600Z,9.45
2018-10-01T17:35:52.615Z,9.42
2018-10-01T17:38:24.094Z,9.33
2018-10-01T17:40:54.949Z,9.30
2018-10-01T17:43:24.094Z,9.32
2018-10-01T17:45:54.255Z,9.24
2018-10-01T17:48:24.473Z,9.23
2018-10-01T17:50:53.952Z,9.18
2018-10-01T17:53:23.174Z,9.05
2018-10-01T17:55:51.936Z,8.95
2018-10-01T17:58:21.549Z,8.85
2018-10-01T18:00:53.583Z,8.80
2018-10-01T18:03:23.392Z,8.72
2018-10-01T18:05:54.603Z,8.75
2018-10-01T18:08:23.789Z,8.63
2018-10-01T18:10:54.899Z,8.67
2018-10-01T18:13:24.553Z,8.64
2018-10-01T18:15:54.177Z,8.62
2018-10-01T18:18:24.158Z,8.60
2018-10-01T18:20:53.525Z,8.68
2018-10-01T18:23:23.103Z,8.68
2018-10-01T18:25:53.950Z,8.62
2018-10-01T18:28:24.272Z,8.52
2018-10-01T18:30:54.749Z,8.57
2018-10-01T18:33:25.287Z,8.51
2018-10-01T18:35:55.447Z,8.54
2018-10-01T18:38:25.873Z,8.55
2018-10-01T18:40:55.149Z,8.56
2018-10-01T18:43:25.179Z,8.56
2018-10-01T18:45:54.887Z,8.47
2018-10-01T18:48:24.392Z,8.41
2018-10-01T18:50:53.942Z,8.39
2018-10-01T18:53:25.091Z,8.44
2018-10-01T18:55:55.466Z,8.41
2018-10-01T18:58:26.684Z,8.36
2018-10-01T19:00:56.571Z,8.33
2018-10-01T19:03:26.463Z,8.30
2018-10-01T19:05:56.021Z,8.25
2018-10-01T19:08:25.115Z,8.15
2018-10-01T19:10:55.332Z,8.25
2018-10-01T19:13:24.361Z,8.21
2018-10-01T19:15:53.973Z,8.26
2018-10-01T19:18:24.504Z,8.25
2018-10-01T19:20:55.070Z,8.16
2018-10-01T19:23:25.709Z,8.18
2018-10-01T19:25:57.280Z,8.15
2018-10-01T19:28:26.264Z,8.20
2018-10-01T19:30:55.828Z,8.14
2018-10-01T19:33:26.090Z,8.17
2018-10-01T19:35:55.894Z,8.02
2018-10-01T19:38:24.840Z,8.01
2018-10-01T19:40:54.857Z,8.06
2018-10-01T19:43:24.114Z,8.03
2018-10-01T19:45:53.238Z,8.13
2018-10-01T19:48:23.008Z,8.16
2018-10-01T19:50:51.807Z,8.06
2018-10-01T19:53:22.511Z,7.99
2018-10-01T19:55:53.842Z,7.96
2018-10-01T19:58:23.645Z,7.96
2018-10-01T20:00:52.923Z,7.84
2018-10-01T20:03:22.668Z,7.91
2018-10-01T20:05:51.246Z,7.84
2018-10-01T20:08:21.066Z,7.80
2018-10-01T20:10:50.357Z,7.71
2018-10-01T20:13:20.306Z,7.59
2018-10-01T20:15:49.980Z,7.67
2018-10-01T20:18:19.563Z,7.68
2018-10-01T20:20:50.658Z,7.69
2018-10-01T20:23:19.942Z,7.67
2018-10-01T20:25:50.414Z,7.73
2018-10-01T20:28:20.065Z,7.70
2018-10-01T20:30:50.413Z,7.65
2018-10-01T20:33:19.508Z,7.66
2018-10-01T20:35:49.990Z,7.67
2018-10-01T20:38:20.207Z,7.48
2018-10-01T20:40:49.623Z,7.43
2018-10-01T20:43:18.913Z,7.37
2018-10-01T20:45:48.406Z,7.31
2018-10-01T20:48:17.112Z,7.37
2018-10-01T20:50:46.116Z,7.35
2018-10-01T20:53:15.967Z,7.26
2018-10-01T20:55:46.605Z,7.21
2018-10-01T20:58:16.306Z,7.18
2018-10-01T21:00:48.089Z,7.05
2018-10-01T21:03:17.768Z,7.02
2018-10-01T21:05:46.930Z,7.01
2018-10-01T21:08:15.758Z,6.87
2018-10-01T21:10:45.349Z,6.87
2018-10-01T21:13:15.261Z,6.82
2018-10-01T21:15:45.861Z,6.77
2018-10-01T21:18:16.641Z,6.78
2018-10-01T21:20:46.696Z,6.78
2018-10-01T21:23:17.492Z,6.78
2018-10-01T21:25:46.994Z,6.81
2018-10-01T21:28:16.585Z,6.75
2018-10-01T21:30:46.092Z,6.71
2018-10-01T21:33:15.172Z,6.69
2018-10-01T21:35:45.238Z,6.64
2018-10-01T21:38:14.484Z,6.64
2018-10-01T21:40:44.753Z,6.46
2018-10-01T21:43:13.409Z,6.56
2018-10-01T21:45:42.337Z,6.52
2018-10-01T21:48:11.536Z,6.56
2018-10-01T21:50:40.615Z,6.59
2018-10-01T21:53:10.677Z,6.59
2018-10-01T21:55:41.261Z,6.60
2018-10-01T21:58:12.320Z,6.62
2018-10-01T22:00:47.450Z,6.44
2018-10-01T22:03:18.592Z,6.45
2018-10-01T22:05:48.634Z,6.50
2018-10-01T22:08:17.920Z,6.48
2018-10-01T22:10:49.907Z,6.51
2018-10-01T22:13:20.940Z,6.51
2018-10-01T22:15:52.381Z,6.50
2018-10-01T22:18:22.613Z,6.42
2018-10-01T22:20:53.011Z,6.41
2018-10-01T22:23:23.025Z,6.41
2018-10-01T22:25:53.151Z,6.35
2018-10-01T22:28:21.913Z,6.46
2018-10-01T22:30:52.080Z,6.41
2018-10-01T22:33:22.069Z,6.39
2018-10-01T22:35:50.764Z,6.31
2018-10-01T22:38:20.444Z,6.25
2018-10-01T22:40:51.524Z,6.34
2018-10-01T22:43:22.303Z,6.28
2018-10-01T22:45:51.745Z,6.34
2018-10-01T22:48:21.620Z,6.26
2018-10-01T22:50:52.164Z,6.38
2018-10-01T22:53:22.238Z,6.28
2018-10-01T22:55:51.569Z,6.35
2018-10-01T22:58:20.724Z,6.35
2018-10-01T23:00:50.177Z,6.08
2018-10-01T23:03:21.162Z,6.03
2018-10-01T23:05:50.242Z,6.09
2018-10-01T23:08:20.340Z,6.19
2018-10-01T23:10:49.558Z,6.06
2018-10-01T23:13:18.475Z,6.14
2018-10-01T23:15:48.840Z,6.17
2018-10-01T23:18:18.463Z,6.19
2018-10-01T23:20:49.741Z,6.12
2018-10-01T23:23:20.013Z,6.12
2018-10-01T23:25:50.817Z,6.07
2018-10-01T23:28:20.622Z,5.93
2018-10-01T23:30:49.209Z,5.85
2018-10-01T23:33:17.968Z,5.76
2018-10-01T23:35:47.732Z,5.78
2018-10-01T23:38:18.644Z,5.64
2018-10-01T23:40:49.536Z,5.67
2018-10-01T23:43:19.292Z,5.81
2018-10-01T23:45:48.584Z,5.91
2018-10-01T23:48:18.699Z,5.94
2018-10-01T23:50:50.346Z,5.90
2018-10-01T23:53:20.163Z,5.85
2018-10-01T23:55:50.253Z,5.81
2018-10-01T23:58:18.796Z,5.78
